Terminal Aerodrome Forecast
Issued by NWS

Home | Current Version | Previous Version | Text Only | Print | Product List | Glossary On
Versions: 1 2 3 4 5 6 7 8 9 10 11 12 13 14
295
FTUS45 KABQ 250520
TAFTCC
TAF
KTCC 250520Z 2506/2606 07012KT P6SM VCTS OVC045CB
     FM250700 10009KT P6SM BKN040
     FM250900 12006KT P6SM OVC025
     FM251200 13007KT P6SM OVC007
     FM251600 14007KT P6SM BKN025
     FM252000 16011G19KT P6SM BKN040
      TEMPO 2603/2606 VRB20G35KT 4SM -TSRA OVC025CB=

USA.gov is the U.S. government's official web portal to all federal, state and local government web resources and services.